sensor_id;sensor_type;location;lat;lon;timestamp;P1;durP1;ratioP1;P2;durP2;ratioP2
35558;SDS011;21661;50.794;-1.066;2024-01-16T00:02:17;14.32;;;7.30;;
35558;SDS011;21661;50.794;-1.066;2024-01-16T00:04:42;15.77;;;7.35;;
35558;SDS011;21661;50.794;-1.066;2024-01-16T00:07:08;15.10;;;6.68;;
35558;SDS011;21661;50.794;-1.066;2024-01-16T00:09:34;18.80;;;7.95;;
35558;SDS011;21661;50.794;-1.066;2024-01-16T00:12:01;15.60;;;8.05;;
35558;SDS011;21661;50.794;-1.066;2024-01-16T00:14:27;19.70;;;8.13;;
35558;SDS011;21661;50.794;-1.066;2024-01-16T00:16:53;17.30;;;7.80;;
35558;SDS011;21661;50.794;-1.066;2024-01-16T00:19:18;22.45;;;8.30;;
35558;SDS011;21661;50.794;-1.066;2024-01-16T00:21:44;18.70;;;8.60;;
35558;SDS011;21661;50.794;-1.066;2024-01-16T00:24:14;17.23;;;7.50;;
35558;SDS011;21661;50.794;-1.066;2024-01-16T00:26:40;15.35;;;7.75;;
35558;SDS011;21661;50.794;-1.066;2024-01-16T00:29:05;15.88;;;7.35;;
35558;SDS011;21661;50.794;-1.066;2024-01-16T00:31:31;17.75;;;7.93;;
35558;SDS011;21661;50.794;-1.066;2024-01-16T00:33:57;19.10;;;9.32;;
35558;SDS011;21661;50.794;-1.066;2024-01-16T00:36:22;16.35;;;7.18;;
35558;SDS011;21661;50.794;-1.066;2024-01-16T00:38:48;16.75;;;8.05;;
35558;SDS011;21661;50.794;-1.066;2024-01-16T00:41:15;16.92;;;7.63;;
35558;SDS011;21661;50.794;-1.066;2024-01-16T00:43:41;13.98;;;7.15;;
35558;SDS011;21661;50.794;-1.066;2024-01-16T00:46:08;17.13;;;7.20;;
35558;SDS011;21661;50.794;-1.066;2024-01-16T00:48:34;14.07;;;6.55;;
35558;SDS011;21661;50.794;-1.066;2024-01-16T00:50:59;15.32;;;6.97;;
35558;SDS011;21661;50.794;-1.066;2024-01-16T00:53:26;12.02;;;5.60;;
35558;SDS011;21661;50.794;-1.066;2024-01-16T00:55:52;11.00;;;5.80;;
35558;SDS011;21661;50.794;-1.066;2024-01-16T00:58:19;10.60;;;5.90;;
35558;SDS011;21661;50.794;-1.066;2024-01-16T01:00:48;12.30;;;5.63;;
35558;SDS011;21661;50.794;-1.066;2024-01-16T01:03:14;10.70;;;5.32;;
35558;SDS011;21661;50.794;-1.066;2024-01-16T01:05:39;14.25;;;6.18;;
35558;SDS011;21661;50.794;-1.066;2024-01-16T01:08:05;10.20;;;5.28;;
35558;SDS011;21661;50.794;-1.066;2024-01-16T01:10:31;13.93;;;6.00;;
35558;SDS011;21661;50.794;-1.066;2024-01-16T01:12:57;10.35;;;5.78;;
35558;SDS011;21661;50.794;-1.066;2024-01-16T01:15:22;9.18;;;4.53;;
35558;SDS011;21661;50.794;-1.066;2024-01-16T01:17:48;9.93;;;4.47;;
35558;SDS011;21661;50.794;-1.066;2024-01-16T01:20:15;9.27;;;4.20;;
35558;SDS011;21661;50.794;-1.066;2024-01-16T01:22:42;14.13;;;4.53;;
35558;SDS011;21661;50.794;-1.066;2024-01-16T01:25:09;9.25;;;4.22;;
35558;SDS011;21661;50.794;-1.066;2024-01-16T01:27:35;8.95;;;4.20;;
35558;SDS011;21661;50.794;-1.066;2024-01-16T01:30:01;11.60;;;4.45;;
35558;SDS011;21661;50.794;-1.066;2024-01-16T01:32:27;9.15;;;4.93;;
35558;SDS011;21661;50.794;-1.066;2024-01-16T01:34:53;13.90;;;5.00;;
35558;SDS011;21661;50.794;-1.066;2024-01-16T01:37:18;12.73;;;4.80;;
35558;SDS011;21661;50.794;-1.066;2024-01-16T01:39:44;15.23;;;5.18;;
35558;SDS011;21661;50.794;-1.066;2024-01-16T01:42:09;10.20;;;5.00;;
35558;SDS011;21661;50.794;-1.066;2024-01-16T01:44:35;8.88;;;5.00;;
35558;SDS011;21661;50.794;-1.066;2024-01-16T01:47:00;11.10;;;5.10;;
35558;SDS011;21661;50.794;-1.066;2024-01-16T01:49:27;10.13;;;4.60;;
35558;SDS011;21661;50.794;-1.066;2024-01-16T01:51:53;13.13;;;4.82;;
35558;SDS011;21661;50.794;-1.066;2024-01-16T01:54:19;13.60;;;5.07;;
35558;SDS011;21661;50.794;-1.066;2024-01-16T01:56:47;9.35;;;4.78;;
35558;SDS011;21661;50.794;-1.066;2024-01-16T01:59:14;10.63;;;4.60;;
35558;SDS011;21661;50.794;-1.066;2024-01-16T02:01:41;12.80;;;4.88;;
35558;SDS011;21661;50.794;-1.066;2024-01-16T02:04:07;13.13;;;4.53;;
35558;SDS011;21661;50.794;-1.066;2024-01-16T02:06:34;10.90;;;5.22;;
35558;SDS011;21661;50.794;-1.066;2024-01-16T02:09:00;9.27;;;4.22;;
35558;SDS011;21661;50.794;-1.066;2024-01-16T02:11:26;14.45;;;4.97;;
35558;SDS011;21661;50.794;-1.066;2024-01-16T02:13:51;9.65;;;4.63;;
35558;SDS011;21661;50.794;-1.066;2024-01-16T02:16:18;9.80;;;4.45;;
35558;SDS011;21661;50.794;-1.066;2024-01-16T02:18:45;10.90;;;4.80;;
35558;SDS011;21661;50.794;-1.066;2024-01-16T02:21:11;10.60;;;4.40;;
35558;SDS011;21661;50.794;-1.066;2024-01-16T02:23:42;9.77;;;4.43;;
35558;SDS011;21661;50.794;-1.066;2024-01-16T02:26:07;11.77;;;4.88;;
35558;SDS011;21661;50.794;-1.066;2024-01-16T02:28:33;8.02;;;4.50;;
35558;SDS011;21661;50.794;-1.066;2024-01-16T02:30:59;8.95;;;4.85;;
35558;SDS011;21661;50.794;-1.066;2024-01-16T02:33:24;12.15;;;4.63;;
35558;SDS011;21661;50.794;-1.066;2024-01-16T02:35:50;8.48;;;4.57;;
35558;SDS011;21661;50.794;-1.066;2024-01-16T02:38:16;8.48;;;4.38;;
35558;SDS011;21661;50.794;-1.066;2024-01-16T02:40:41;9.23;;;4.57;;
35558;SDS011;21661;50.794;-1.066;2024-01-16T02:43:07;9.57;;;4.82;;
35558;SDS011;21661;50.794;-1.066;2024-01-16T02:45:33;11.45;;;4.53;;
35558;SDS011;21661;50.794;-1.066;2024-01-16T02:47:59;8.45;;;4.70;;
35558;SDS011;21661;50.794;-1.066;2024-01-16T02:50:25;10.85;;;4.85;;
35558;SDS011;21661;50.794;-1.066;2024-01-16T02:52:50;14.43;;;4.75;;
35558;SDS011;21661;50.794;-1.066;2024-01-16T02:55:16;7.45;;;4.50;;
35558;SDS011;21661;50.794;-1.066;2024-01-16T02:57:42;14.38;;;4.93;;
35558;SDS011;21661;50.794;-1.066;2024-01-16T03:00:07;10.40;;;5.03;;
35558;SDS011;21661;50.794;-1.066;2024-01-16T03:02:35;11.23;;;5.20;;
35558;SDS011;21661;50.794;-1.066;2024-01-16T03:05:02;11.82;;;5.30;;
35558;SDS011;21661;50.794;-1.066;2024-01-16T03:07:30;11.05;;;5.28;;
35558;SDS011;21661;50.794;-1.066;2024-01-16T03:09:55;12.88;;;5.35;;
35558;SDS011;21661;50.794;-1.066;2024-01-16T03:12:21;9.85;;;4.80;;
35558;SDS011;21661;50.794;-1.066;2024-01-16T03:14:47;9.75;;;4.47;;
35558;SDS011;21661;50.794;-1.066;2024-01-16T03:17:12;10.07;;;4.80;;
35558;SDS011;21661;50.794;-1.066;2024-01-16T03:19:38;9.70;;;5.03;;
35558;SDS011;21661;50.794;-1.066;2024-01-16T03:22:04;8.23;;;4.50;;
35558;SDS011;21661;50.794;-1.066;2024-01-16T03:24:29;10.32;;;5.13;;
35558;SDS011;21661;50.794;-1.066;2024-01-16T03:26:55;8.38;;;4.60;;
35558;SDS011;21661;50.794;-1.066;2024-01-16T03:29:21;9.63;;;4.68;;
35558;SDS011;21661;50.794;-1.066;2024-01-16T03:31:46;9.07;;;5.05;;
35558;SDS011;21661;50.794;-1.066;2024-01-16T03:34:13;10.98;;;4.65;;
35558;SDS011;21661;50.794;-1.066;2024-01-16T03:36:38;10.45;;;4.57;;
35558;SDS011;21661;50.794;-1.066;2024-01-16T03:39:04;9.05;;;4.53;;
35558;SDS011;21661;50.794;-1.066;2024-01-16T03:41:30;10.95;;;4.78;;
35558;SDS011;21661;50.794;-1.066;2024-01-16T03:43:56;10.23;;;4.68;;
35558;SDS011;21661;50.794;-1.066;2024-01-16T03:46:22;10.57;;;5.00;;
35558;SDS011;21661;50.794;-1.066;2024-01-16T03:48:48;10.00;;;4.80;;
35558;SDS011;21661;50.794;-1.066;2024-01-16T03:51:14;10.05;;;4.78;;
35558;SDS011;21661;50.794;-1.066;2024-01-16T03:53:44;11.13;;;5.22;;
35558;SDS011;21661;50.794;-1.066;2024-01-16T03:56:10;10.10;;;4.90;;
35558;SDS011;21661;50.794;-1.066;2024-01-16T03:58:37;12.15;;;4.93;;
35558;SDS011;21661;50.794;-1.066;2024-01-16T04:01:03;8.40;;;4.63;;
35558;SDS011;21661;50.794;-1.066;2024-01-16T04:03:28;13.13;;;4.35;;
35558;SDS011;21661;50.794;-1.066;2024-01-16T04:05:54;11.30;;;4.70;;
35558;SDS011;21661;50.794;-1.066;2024-01-16T04:08:19;10.80;;;4.55;;
35558;SDS011;21661;50.794;-1.066;2024-01-16T04:10:45;10.52;;;4.43;;
35558;SDS011;21661;50.794;-1.066;2024-01-16T04:13:11;9.48;;;4.72;;
35558;SDS011;21661;50.794;-1.066;2024-01-16T04:15:39;9.82;;;4.50;;
35558;SDS011;21661;50.794;-1.066;2024-01-16T04:18:05;12.90;;;6.22;;
35558;SDS011;21661;50.794;-1.066;2024-01-16T04:20:31;10.60;;;4.40;;
35558;SDS011;21661;50.794;-1.066;2024-01-16T04:22:57;8.38;;;4.53;;
35558;SDS011;21661;50.794;-1.066;2024-01-16T04:25:23;12.38;;;4.75;;
35558;SDS011;21661;50.794;-1.066;2024-01-16T04:27:49;13.00;;;5.18;;
35558;SDS011;21661;50.794;-1.066;2024-01-16T04:30:15;9.93;;;3.95;;
35558;SDS011;21661;50.794;-1.066;2024-01-16T04:32:41;9.43;;;3.90;;
35558;SDS011;21661;50.794;-1.066;2024-01-16T04:35:07;12.70;;;4.57;;
35558;SDS011;21661;50.794;-1.066;2024-01-16T04:37:33;8.93;;;3.88;;
35558;SDS011;21661;50.794;-1.066;2024-01-16T04:39:58;8.40;;;4.22;;
35558;SDS011;21661;50.794;-1.066;2024-01-16T04:42:24;10.63;;;4.50;;
35558;SDS011;21661;50.794;-1.066;2024-01-16T04:44:50;10.30;;;4.43;;
35558;SDS011;21661;50.794;-1.066;2024-01-16T04:47:16;8.98;;;4.22;;
35558;SDS011;21661;50.794;-1.066;2024-01-16T04:49:42;8.45;;;4.28;;
35558;SDS011;21661;50.794;-1.066;2024-01-16T04:52:09;9.73;;;4.30;;
35558;SDS011;21661;50.794;-1.066;2024-01-16T04:54:34;9.55;;;4.63;;
35558;SDS011;21661;50.794;-1.066;2024-01-16T04:57:00;8.80;;;3.80;;
35558;SDS011;21661;50.794;-1.066;2024-01-16T04:59:26;10.60;;;4.00;;
35558;SDS011;21661;50.794;-1.066;2024-01-16T05:01:51;12.00;;;4.43;;
35558;SDS011;21661;50.794;-1.066;2024-01-16T05:04:17;8.57;;;4.45;;
35558;SDS011;21661;50.794;-1.066;2024-01-16T05:06:43;8.07;;;4.50;;
35558;SDS011;21661;50.794;-1.066;2024-01-16T05:09:08;10.30;;;4.60;;
35558;SDS011;21661;50.794;-1.066;2024-01-16T05:11:34;9.00;;;4.40;;
35558;SDS011;21661;50.794;-1.066;2024-01-16T05:14:00;8.68;;;4.50;;
35558;SDS011;21661;50.794;-1.066;2024-01-16T05:16:26;9.98;;;4.80;;
35558;SDS011;21661;50.794;-1.066;2024-01-16T05:18:52;9.60;;;4.35;;
35558;SDS011;21661;50.794;-1.066;2024-01-16T05:21:19;12.57;;;4.30;;
35558;SDS011;21661;50.794;-1.066;2024-01-16T05:23:45;8.40;;;4.70;;
35558;SDS011;21661;50.794;-1.066;2024-01-16T05:26:11;12.80;;;4.45;;
35558;SDS011;21661;50.794;-1.066;2024-01-16T05:28:41;8.18;;;3.95;;
35558;SDS011;21661;50.794;-1.066;2024-01-16T05:31:06;7.97;;;4.18;;
35558;SDS011;21661;50.794;-1.066;2024-01-16T05:33:32;11.88;;;4.82;;
35558;SDS011;21661;50.794;-1.066;2024-01-16T05:35:58;9.50;;;4.93;;
35558;SDS011;21661;50.794;-1.066;2024-01-16T05:38:23;10.20;;;4.90;;
35558;SDS011;21661;50.794;-1.066;2024-01-16T05:40:49;10.35;;;5.15;;
35558;SDS011;21661;50.794;-1.066;2024-01-16T05:43:14;10.38;;;5.15;;
35558;SDS011;21661;50.794;-1.066;2024-01-16T05:45:40;8.90;;;4.57;;
35558;SDS011;21661;50.794;-1.066;2024-01-16T05:48:06;8.85;;;4.80;;
35558;SDS011;21661;50.794;-1.066;2024-01-16T05:50:34;11.40;;;4.88;;
35558;SDS011;21661;50.794;-1.066;2024-01-16T05:52:59;9.85;;;4.60;;
35558;SDS011;21661;50.794;-1.066;2024-01-16T05:55:25;9.70;;;4.78;;
35558;SDS011;21661;50.794;-1.066;2024-01-16T05:57:51;9.73;;;4.65;;
35558;SDS011;21661;50.794;-1.066;2024-01-16T06:00:17;8.05;;;4.63;;
35558;SDS011;21661;50.794;-1.066;2024-01-16T06:02:43;11.55;;;4.50;;
35558;SDS011;21661;50.794;-1.066;2024-01-16T06:05:09;9.98;;;4.80;;
35558;SDS011;21661;50.794;-1.066;2024-01-16T06:07:35;10.85;;;4.60;;
35558;SDS011;21661;50.794;-1.066;2024-01-16T06:10:01;9.45;;;4.47;;
35558;SDS011;21661;50.794;-1.066;2024-01-16T06:12:27;8.48;;;4.50;;
35558;SDS011;21661;50.794;-1.066;2024-01-16T06:14:52;10.73;;;4.30;;
35558;SDS011;21661;50.794;-1.066;2024-01-16T06:17:18;9.60;;;4.93;;
35558;SDS011;21661;50.794;-1.066;2024-01-16T06:19:43;9.43;;;4.53;;
35558;SDS011;21661;50.794;-1.066;2024-01-16T06:22:09;11.00;;;4.97;;
35558;SDS011;21661;50.794;-1.066;2024-01-16T06:24:36;11.85;;;4.90;;
35558;SDS011;21661;50.794;-1.066;2024-01-16T06:27:05;11.13;;;4.82;;
35558;SDS011;21661;50.794;-1.066;2024-01-16T06:29:32;9.70;;;5.13;;
35558;SDS011;21661;50.794;-1.066;2024-01-16T06:31:58;9.77;;;4.95;;
35558;SDS011;21661;50.794;-1.066;2024-01-16T06:34:24;11.82;;;5.00;;
35558;SDS011;21661;50.794;-1.066;2024-01-16T06:36:49;9.80;;;4.32;;
35558;SDS011;21661;50.794;-1.066;2024-01-16T06:39:15;9.18;;;4.80;;
35558;SDS011;21661;50.794;-1.066;2024-01-16T06:41:41;9.27;;;4.60;;
35558;SDS011;21661;50.794;-1.066;2024-01-16T06:44:07;9.05;;;4.32;;
35558;SDS011;21661;50.794;-1.066;2024-01-16T06:46:32;8.90;;;4.45;;
35558;SDS011;21661;50.794;-1.066;2024-01-16T06:49:00;8.98;;;4.43;;
35558;SDS011;21661;50.794;-1.066;2024-01-16T06:51:26;10.23;;;5.07;;
35558;SDS011;21661;50.794;-1.066;2024-01-16T06:53:52;9.50;;;5.00;;
35558;SDS011;21661;50.794;-1.066;2024-01-16T06:56:17;11.90;;;4.95;;
35558;SDS011;21661;50.794;-1.066;2024-01-16T06:58:43;11.27;;;6.32;;
35558;SDS011;21661;50.794;-1.066;2024-01-16T07:01:10;12.10;;;4.68;;
35558;SDS011;21661;50.794;-1.066;2024-01-16T07:03:35;10.13;;;4.95;;
35558;SDS011;21661;50.794;-1.066;2024-01-16T07:06:01;10.70;;;4.53;;
35558;SDS011;21661;50.794;-1.066;2024-01-16T07:08:27;11.65;;;5.05;;
35558;SDS011;21661;50.794;-1.066;2024-01-16T07:10:53;10.68;;;4.85;;
35558;SDS011;21661;50.794;-1.066;2024-01-16T07:13:19;11.02;;;5.88;;
35558;SDS011;21661;50.794;-1.066;2024-01-16T07:15:45;13.13;;;4.47;;
35558;SDS011;21661;50.794;-1.066;2024-01-16T07:18:10;8.20;;;4.22;;
35558;SDS011;21661;50.794;-1.066;2024-01-16T07:20:36;8.70;;;4.40;;
35558;SDS011;21661;50.794;-1.066;2024-01-16T07:23:01;9.77;;;5.43;;
35558;SDS011;21661;50.794;-1.066;2024-01-16T07:25:27;8.20;;;4.95;;
35558;SDS011;21661;50.794;-1.066;2024-01-16T07:27:53;11.25;;;5.22;;
35558;SDS011;21661;50.794;-1.066;2024-01-16T07:30:19;11.48;;;5.18;;
35558;SDS011;21661;50.794;-1.066;2024-01-16T07:32:44;9.18;;;4.40;;
35558;SDS011;21661;50.794;-1.066;2024-01-16T07:35:10;8.80;;;4.63;;
35558;SDS011;21661;50.794;-1.066;2024-01-16T07:37:36;8.82;;;4.65;;
35558;SDS011;21661;50.794;-1.066;2024-01-16T07:40:02;10.82;;;4.97;;
35558;SDS011;21661;50.794;-1.066;2024-01-16T07:42:30;9.73;;;5.43;;
35558;SDS011;21661;50.794;-1.066;2024-01-16T07:45:00;8.68;;;5.32;;
35558;SDS011;21661;50.794;-1.066;2024-01-16T07:47:29;14.45;;;6.35;;
35558;SDS011;21661;50.794;-1.066;2024-01-16T07:49:58;16.55;;;6.28;;
35558;SDS011;21661;50.794;-1.066;2024-01-16T07:52:24;16.40;;;5.93;;
35558;SDS011;21661;50.794;-1.066;2024-01-16T07:54:52;12.63;;;5.88;;
35558;SDS011;21661;50.794;-1.066;2024-01-16T07:57:17;14.32;;;6.18;;
35558;SDS011;21661;50.794;-1.066;2024-01-16T07:59:44;9.68;;;5.32;;
35558;SDS011;21661;50.794;-1.066;2024-01-16T08:02:09;11.70;;;5.40;;
35558;SDS011;21661;50.794;-1.066;2024-01-16T08:04:35;9.93;;;5.22;;
35558;SDS011;21661;50.794;-1.066;2024-01-16T08:07:01;9.27;;;4.93;;
35558;SDS011;21661;50.794;-1.066;2024-01-16T08:09:27;11.35;;;5.82;;
35558;SDS011;21661;50.794;-1.066;2024-01-16T08:11:52;14.23;;;5.88;;
35558;SDS011;21661;50.794;-1.066;2024-01-16T08:14:18;11.48;;;5.15;;
35558;SDS011;21661;50.794;-1.066;2024-01-16T08:16:44;12.50;;;5.93;;
35558;SDS011;21661;50.794;-1.066;2024-01-16T08:19:09;14.02;;;7.15;;
35558;SDS011;21661;50.794;-1.066;2024-01-16T08:21:35;13.05;;;6.95;;
35558;SDS011;21661;50.794;-1.066;2024-01-16T08:24:01;14.13;;;7.30;;
35558;SDS011;21661;50.794;-1.066;2024-01-16T08:26:27;15.43;;;7.68;;
35558;SDS011;21661;50.794;-1.066;2024-01-16T08:28:53;12.82;;;7.10;;
35558;SDS011;21661;50.794;-1.066;2024-01-16T08:31:19;17.13;;;8.27;;
35558;SDS011;21661;50.794;-1.066;2024-01-16T08:33:45;15.10;;;7.78;;
35558;SDS011;21661;50.794;-1.066;2024-01-16T08:36:11;23.23;;;11.35;;
35558;SDS011;21661;50.794;-1.066;2024-01-16T08:38:36;44.88;;;19.13;;
35558;SDS011;21661;50.794;-1.066;2024-01-16T08:41:02;38.53;;;16.20;;
35558;SDS011;21661;50.794;-1.066;2024-01-16T08:43:36;30.33;;;14.68;;
35558;SDS011;21661;50.794;-1.066;2024-01-16T08:46:02;28.70;;;12.35;;
35558;SDS011;21661;50.794;-1.066;2024-01-16T08:48:28;24.58;;;11.73;;
35558;SDS011;21661;50.794;-1.066;2024-01-16T08:50:54;16.58;;;9.60;;
35558;SDS011;21661;50.794;-1.066;2024-01-16T08:53:20;18.88;;;9.45;;
35558;SDS011;21661;50.794;-1.066;2024-01-16T08:55:48;18.30;;;9.48;;
35558;SDS011;21661;50.794;-1.066;2024-01-16T08:58:14;20.20;;;8.73;;
35558;SDS011;21661;50.794;-1.066;2024-01-16T09:00:40;15.73;;;7.47;;
35558;SDS011;21661;50.794;-1.066;2024-01-16T09:03:05;12.30;;;6.90;;
35558;SDS011;21661;50.794;-1.066;2024-01-16T09:05:32;17.90;;;8.40;;
35558;SDS011;21661;50.794;-1.066;2024-01-16T09:08:01;20.38;;;9.23;;
35558;SDS011;21661;50.794;-1.066;2024-01-16T09:10:27;16.42;;;8.57;;
35558;SDS011;21661;50.794;-1.066;2024-01-16T09:12:54;16.77;;;8.80;;
35558;SDS011;21661;50.794;-1.066;2024-01-16T09:15:20;14.65;;;8.32;;
35558;SDS011;21661;50.794;-1.066;2024-01-16T09:17:45;16.85;;;7.35;;
35558;SDS011;21661;50.794;-1.066;2024-01-16T09:20:11;15.13;;;7.10;;
35558;SDS011;21661;50.794;-1.066;2024-01-16T09:22:37;18.23;;;8.02;;
35558;SDS011;21661;50.794;-1.066;2024-01-16T09:25:03;13.73;;;7.35;;
35558;SDS011;21661;50.794;-1.066;2024-01-16T09:27:29;12.48;;;7.18;;
35558;SDS011;21661;50.794;-1.066;2024-01-16T09:29:54;13.07;;;7.28;;
35558;SDS011;21661;50.794;-1.066;2024-01-16T09:32:20;14.23;;;8.25;;
35558;SDS011;21661;50.794;-1.066;2024-01-16T09:34:46;15.27;;;7.50;;
35558;SDS011;21661;50.794;-1.066;2024-01-16T09:37:11;16.88;;;8.32;;
35558;SDS011;21661;50.794;-1.066;2024-01-16T09:39:39;15.07;;;7.63;;
35558;SDS011;21661;50.794;-1.066;2024-01-16T09:42:06;15.02;;;8.20;;
35558;SDS011;21661;50.794;-1.066;2024-01-16T09:44:32;14.73;;;8.13;;
35558;SDS011;21661;50.794;-1.066;2024-01-16T09:46:59;13.18;;;7.68;;
35558;SDS011;21661;50.794;-1.066;2024-01-16T09:49:29;14.35;;;8.32;;
35558;SDS011;21661;50.794;-1.066;2024-01-16T09:51:55;15.88;;;7.85;;
35558;SDS011;21661;50.794;-1.066;2024-01-16T09:54:24;15.23;;;7.75;;
35558;SDS011;21661;50.794;-1.066;2024-01-16T09:56:51;14.90;;;7.40;;
35558;SDS011;21661;50.794;-1.066;2024-01-16T09:59:20;12.10;;;7.00;;
35558;SDS011;21661;50.794;-1.066;2024-01-16T10:01:48;12.95;;;6.53;;
35558;SDS011;21661;50.794;-1.066;2024-01-16T10:04:16;12.10;;;6.78;;
35558;SDS011;21661;50.794;-1.066;2024-01-16T10:06:42;12.27;;;6.97;;
35558;SDS011;21661;50.794;-1.066;2024-01-16T10:09:13;11.98;;;6.72;;
35558;SDS011;21661;50.794;-1.066;2024-01-16T10:11:41;16.13;;;6.82;;
35558;SDS011;21661;50.794;-1.066;2024-01-16T10:14:07;13.90;;;6.63;;
35558;SDS011;21661;50.794;-1.066;2024-01-16T10:19:23;11.65;;;6.57;;
35558;SDS011;21661;50.794;-1.066;2024-01-16T10:21:49;15.35;;;6.50;;
35558;SDS011;21661;50.794;-1.066;2024-01-16T10:24:15;13.90;;;6.93;;
35558;SDS011;21661;50.794;-1.066;2024-01-16T10:26:41;11.55;;;5.95;;
35558;SDS011;21661;50.794;-1.066;2024-01-16T10:29:07;13.88;;;6.03;;
35558;SDS011;21661;50.794;-1.066;2024-01-16T10:31:34;10.80;;;6.00;;
35558;SDS011;21661;50.794;-1.066;2024-01-16T10:34:00;12.73;;;6.55;;
35558;SDS011;21661;50.794;-1.066;2024-01-16T10:36:25;13.15;;;6.95;;
35558;SDS011;21661;50.794;-1.066;2024-01-16T10:38:51;12.35;;;6.90;;
35558;SDS011;21661;50.794;-1.066;2024-01-16T10:41:23;12.07;;;6.78;;
35558;SDS011;21661;50.794;-1.066;2024-01-16T10:44:04;10.95;;;6.32;;
35558;SDS011;21661;50.794;-1.066;2024-01-16T10:46:34;11.88;;;6.32;;
35558;SDS011;21661;50.794;-1.066;2024-01-16T10:49:02;9.77;;;5.97;;
35558;SDS011;21661;50.794;-1.066;2024-01-16T10:51:29;9.75;;;5.22;;
35558;SDS011;21661;50.794;-1.066;2024-01-16T10:54:00;12.73;;;5.97;;
35558;SDS011;21661;50.794;-1.066;2024-01-16T10:56:30;10.27;;;5.00;;
35558;SDS011;21661;50.794;-1.066;2024-01-16T10:59:18;10.45;;;5.53;;
35558;SDS011;21661;50.794;-1.066;2024-01-16T11:01:59;8.95;;;4.88;;
35558;SDS011;21661;50.794;-1.066;2024-01-16T11:04:29;10.98;;;5.20;;
35558;SDS011;21661;50.794;-1.066;2024-01-16T11:06:56;8.82;;;5.55;;
35558;SDS011;21661;50.794;-1.066;2024-01-16T11:09:23;9.23;;;5.10;;
35558;SDS011;21661;50.794;-1.066;2024-01-16T11:11:49;9.52;;;5.70;;
35558;SDS011;21661;50.794;-1.066;2024-01-16T11:14:18;11.55;;;6.65;;
35558;SDS011;21661;50.794;-1.066;2024-01-16T11:16:47;10.70;;;6.10;;
35558;SDS011;21661;50.794;-1.066;2024-01-16T11:19:14;11.93;;;5.70;;
35558;SDS011;21661;50.794;-1.066;2024-01-16T11:21:41;11.32;;;6.20;;
35558;SDS011;21661;50.794;-1.066;2024-01-16T11:24:08;12.93;;;6.03;;
35558;SDS011;21661;50.794;-1.066;2024-01-16T11:26:34;9.63;;;5.00;;
35558;SDS011;21661;50.794;-1.066;2024-01-16T11:31:52;15.90;;;6.45;;
35558;SDS011;21661;50.794;-1.066;2024-01-16T11:37:13;9.35;;;3.53;;
35558;SDS011;21661;50.794;-1.066;2024-01-16T11:39:39;5.35;;;2.30;;
35558;SDS011;21661;50.794;-1.066;2024-01-16T11:42:07;3.35;;;1.52;;
35558;SDS011;21661;50.794;-1.066;2024-01-16T11:44:43;5.68;;;1.20;;
35558;SDS011;21661;50.794;-1.066;2024-01-16T11:47:21;4.25;;;0.98;;
35558;SDS011;21661;50.794;-1.066;2024-01-16T11:49:49;3.17;;;1.00;;
35558;SDS011;21661;50.794;-1.066;2024-01-16T12:00:31;4.15;;;0.95;;
35558;SDS011;21661;50.794;-1.066;2024-01-16T12:03:03;3.28;;;0.75;;
35558;SDS011;21661;50.794;-1.066;2024-01-16T12:05:30;3.97;;;1.15;;
35558;SDS011;21661;50.794;-1.066;2024-01-16T12:07:57;2.50;;;0.80;;
35558;SDS011;21661;50.794;-1.066;2024-01-16T12:10:23;5.10;;;0.90;;
35558;SDS011;21661;50.794;-1.066;2024-01-16T12:12:49;4.40;;;1.02;;
35558;SDS011;21661;50.794;-1.066;2024-01-16T12:17:58;2.88;;;0.90;;
35558;SDS011;21661;50.794;-1.066;2024-01-16T12:20:32;4.32;;;1.58;;
35558;SDS011;21661;50.794;-1.066;2024-01-16T12:23:00;4.00;;;1.00;;
35558;SDS011;21661;50.794;-1.066;2024-01-16T12:25:28;2.17;;;0.80;;
35558;SDS011;21661;50.794;-1.066;2024-01-16T12:27:58;4.68;;;1.60;;
35558;SDS011;21661;50.794;-1.066;2024-01-16T12:30:32;6.80;;;1.00;;
35558;SDS011;21661;50.794;-1.066;2024-01-16T12:33:09;6.03;;;2.55;;
35558;SDS011;21661;50.794;-1.066;2024-01-16T12:38:05;5.75;;;1.45;;
35558;SDS011;21661;50.794;-1.066;2024-01-16T12:40:34;3.03;;;1.23;;
35558;SDS011;21661;50.794;-1.066;2024-01-16T12:43:01;4.32;;;1.35;;
35558;SDS011;21661;50.794;-1.066;2024-01-16T12:45:28;3.55;;;1.55;;
35558;SDS011;21661;50.794;-1.066;2024-01-16T12:47:54;4.78;;;1.90;;
35558;SDS011;21661;50.794;-1.066;2024-01-16T12:50:23;3.60;;;1.30;;
35558;SDS011;21661;50.794;-1.066;2024-01-16T12:52:59;4.50;;;1.20;;
35558;SDS011;21661;50.794;-1.066;2024-01-16T12:55:29;5.85;;;1.70;;
35558;SDS011;21661;50.794;-1.066;2024-01-16T12:58:14;7.40;;;1.80;;
35558;SDS011;21661;50.794;-1.066;2024-01-16T13:00:45;4.18;;;1.35;;
35558;SDS011;21661;50.794;-1.066;2024-01-16T13:03:19;4.80;;;1.55;;
35558;SDS011;21661;50.794;-1.066;2024-01-16T13:06:00;7.90;;;3.15;;
35558;SDS011;21661;50.794;-1.066;2024-01-16T13:08:26;7.25;;;1.58;;
35558;SDS011;21661;50.794;-1.066;2024-01-16T13:13:47;4.07;;;1.45;;
35558;SDS011;21661;50.794;-1.066;2024-01-16T13:16:13;4.45;;;1.33;;
35558;SDS011;21661;50.794;-1.066;2024-01-16T13:18:40;3.22;;;1.20;;
35558;SDS011;21661;50.794;-1.066;2024-01-16T13:21:05;5.90;;;2.05;;
35558;SDS011;21661;50.794;-1.066;2024-01-16T13:23:31;3.97;;;1.23;;
35558;SDS011;21661;50.794;-1.066;2024-01-16T13:25:57;3.22;;;1.13;;
35558;SDS011;21661;50.794;-1.066;2024-01-16T13:28:27;5.65;;;1.73;;
35558;SDS011;21661;50.794;-1.066;2024-01-16T13:30:54;4.68;;;1.20;;
35558;SDS011;21661;50.794;-1.066;2024-01-16T13:33:22;7.15;;;1.40;;
35558;SDS011;21661;50.794;-1.066;2024-01-16T13:35:51;6.63;;;1.83;;
35558;SDS011;21661;50.794;-1.066;2024-01-16T13:38:19;6.80;;;1.63;;
35558;SDS011;21661;50.794;-1.066;2024-01-16T13:40:45;9.23;;;3.00;;
35558;SDS011;21661;50.794;-1.066;2024-01-16T13:43:11;10.45;;;3.03;;
35558;SDS011;21661;50.794;-1.066;2024-01-16T13:45:37;5.97;;;2.53;;
35558;SDS011;21661;50.794;-1.066;2024-01-16T13:48:04;8.50;;;3.50;;
35558;SDS011;21661;50.794;-1.066;2024-01-16T13:50:33;8.73;;;3.90;;
35558;SDS011;21661;50.794;-1.066;2024-01-16T13:52:59;6.43;;;2.67;;
35558;SDS011;21661;50.794;-1.066;2024-01-16T13:55:26;5.15;;;2.28;;
35558;SDS011;21661;50.794;-1.066;2024-01-16T13:57:52;3.80;;;1.60;;
35558;SDS011;21661;50.794;-1.066;2024-01-16T14:00:18;5.32;;;1.50;;
35558;SDS011;21661;50.794;-1.066;2024-01-16T14:02:44;3.13;;;1.45;;
35558;SDS011;21661;50.794;-1.066;2024-01-16T14:05:12;5.32;;;1.70;;
35558;SDS011;21661;50.794;-1.066;2024-01-16T14:07:43;3.38;;;1.08;;
35558;SDS011;21661;50.794;-1.066;2024-01-16T14:10:16;3.13;;;1.35;;
35558;SDS011;21661;50.794;-1.066;2024-01-16T14:12:43;2.90;;;1.15;;
35558;SDS011;21661;50.794;-1.066;2024-01-16T14:15:10;3.63;;;1.40;;
35558;SDS011;21661;50.794;-1.066;2024-01-16T14:17:55;5.85;;;0.93;;
35558;SDS011;21661;50.794;-1.066;2024-01-16T14:20:22;3.35;;;1.25;;
35558;SDS011;21661;50.794;-1.066;2024-01-16T14:22:58;4.90;;;0.80;;
35558;SDS011;21661;50.794;-1.066;2024-01-16T14:25:24;3.10;;;0.88;;
35558;SDS011;21661;50.794;-1.066;2024-01-16T14:28:00;3.17;;;1.20;;
35558;SDS011;21661;50.794;-1.066;2024-01-16T14:30:34;3.40;;;1.57;;
35558;SDS011;21661;50.794;-1.066;2024-01-16T14:33:00;3.33;;;1.20;;
35558;SDS011;21661;50.794;-1.066;2024-01-16T14:35:31;4.05;;;1.05;;
35558;SDS011;21661;50.794;-1.066;2024-01-16T14:37:58;3.33;;;1.20;;
35558;SDS011;21661;50.794;-1.066;2024-01-16T14:40:23;2.38;;;0.80;;
35558;SDS011;21661;50.794;-1.066;2024-01-16T14:42:53;2.88;;;0.90;;
35558;SDS011;21661;50.794;-1.066;2024-01-16T14:45:20;1.45;;;0.50;;
35558;SDS011;21661;50.794;-1.066;2024-01-16T14:47:47;3.30;;;1.02;;
35558;SDS011;21661;50.794;-1.066;2024-01-16T14:50:14;4.38;;;1.13;;
35558;SDS011;21661;50.794;-1.066;2024-01-16T14:52:42;2.30;;;0.70;;